Main page
METAR-TAF:

METAR-TAF

Airports :

RAF Waddington

Waddington, England

latitude: 53-10N, longitude: 000-31W, elevation: 68 m

Current weather observation

The report was made 49 minutes ago, at 02:50 UTC
Temperature 9°C
Humidity 93%
Pressure 1015 hPa
Visibility: 8000 m
mist

METAR: EGXW 230250Z AUTO /////KT 8000 BR BKN046/// 09/08 Q1015

Time: 04:39 (03:39 UTC)

Forecast

The report was made 2 hours and 31 minutes ago, at 01:08 UTC
Forecast valid from 23 at 03 UTC to 23 at 21 UTC
Wind 7 kt from the Northwest
Visibility 10 km or more
Broken clouds at a height of 4500 ft
Probability 30% :
Temporary
from 23 at 13 UTC to 23 at 16 UTC
Wind 15 kt from the North/Northwest with gusts up to 25 kt

TAF: EGXW 230108Z 2303/2321 31007KT 9999 BKN045 PROB30 TEMPO 2313/2316 33015G25KT

Weather observations and forecasts of more than 4000 airports (METAR and TAF reports).

The available stations are represented by yellow and red dots on the map.

Hover mouse over dot to see the name of the station.

Then click to see weather observations and forecasts.

To change the map : click on the green buttons with a black cross to zoom in, on the green button with a dash to zoom out, or on the green arrows for adjacent maps.


METAR-TAF: